Polar Endurance — WDG2085 — position and weather

sailwx.info

Track history (hours):
 
Tides and Currents Weather Stations Pressure Air Temp Water Temp Dewpoint Dewpoint Depression Visibility Wind Speed Wind Dir Waves Ship Positions

Polar Endurance

Owner: Dunlap Towing Co., LaConner, WA. More information available from US FCC via Universal Licensing System and Coast Guard Vessel Documentation Center.

Last reported at 2016-Jul-02 07:33 UTC. Time now 2016-Jul-02 07:36 UTC.
Position N 47°55' W 122°29'.

Length 37 m.

Type: Towing. MMSI: 303144000.

Date/timePositionNaut miles runAvg speedWind from/ knotsBaromVisibWave heightAir tempDewpointWater temp
2016-Jul-02 07:33N 47°55' W 122°29'9 8.9
2016-Jul-02 06:33N 47°47' W 122°26'11 5.7
2016-Jul-02 04:33N 47°36' W 122°22'0 0.4
2016-Jul-02 03:33N 47°35' W 122°21'0 0.0
2016-Jul-02 02:33N 47°35' W 122°21'0 0.0
2016-Jul-02 01:33N 47°35' W 122°21'0 0.0
2016-Jul-02 00:33N 47°35' W 122°21'0 0.0
2016-Jul-01 23:33N 47°35' W 122°21'0 0.0
2016-Jul-01 22:33N 47°35' W 122°21'0 0.1
2016-Jul-01 21:33N 47°35' W 122°21'1211.7
2016-Jul-01 20:34N 47°47' W 122°25'1312.5
2016-Jul-01 19:33N 47°58' W 122°16'2 2.3
2016-Jul-01 18:34N 47°59' W 122°13'0 0.0
2016-Jul-01 17:34N 47°59' W 122°13'0 0.0
2016-Jul-01 16:33N 47°59' W 122°13'  
Track history (hours):
 
Tides and Currents Weather Stations Pressure Air Temp Water Temp Dewpoint Dewpoint Depression Visibility Wind Speed Wind Dir Waves Ship Positions

Polar Endurance

Owner: Dunlap Towing Co., LaConner, WA. More information available from US FCC via Universal Licensing System and Coast Guard Vessel Documentation Center.

Last reported at 2016-Jul-02 07:33 UTC. Time now 2016-Jul-02 07:36 UTC.
Position N 47°55' W 122°29'.

Length 37 m.

Type: Towing. MMSI: 303144000.

Date/timePositionNaut miles runAvg speedWind from/ knotsBaromVisibWave heightAir tempDewpointWater temp
2016-Jul-02 07:33N 47°55' W 122°29'9 8.9
2016-Jul-02 06:33N 47°47' W 122°26'11 5.7
2016-Jul-02 04:33N 47°36' W 122°22'0 0.4
2016-Jul-02 03:33N 47°35' W 122°21'0 0.0
2016-Jul-02 02:33N 47°35' W 122°21'0 0.0
2016-Jul-02 01:33N 47°35' W 122°21'0 0.0
2016-Jul-02 00:33N 47°35' W 122°21'0 0.0
2016-Jul-01 23:33N 47°35' W 122°21'0 0.0
2016-Jul-01 22:33N 47°35' W 122°21'0 0.1
2016-Jul-01 21:33N 47°35' W 122°21'1211.7
2016-Jul-01 20:34N 47°47' W 122°25'1312.5
2016-Jul-01 19:33N 47°58' W 122°16'2 2.3
2016-Jul-01 18:34N 47°59' W 122°13'0 0.0
2016-Jul-01 17:34N 47°59' W 122°13'0 0.0
2016-Jul-01 16:33N 47°59' W 122°13'  

Dump ship's entire track history